sensor_id;sensor_type;location;lat;lon;timestamp;temperature;humidity
55648;DHT22;45266;48.756;9.246;2022-10-22T00:00:09;13.60;99.90
55648;DHT22;45266;48.756;9.246;2022-10-22T00:01:11;13.60;99.90
55648;DHT22;45266;48.756;9.246;2022-10-22T00:02:13;13.60;99.90
55648;DHT22;45266;48.756;9.246;2022-10-22T00:03:20;13.60;99.90
55648;DHT22;45266;48.756;9.246;2022-10-22T00:04:22;13.60;99.90
55648;DHT22;45266;48.756;9.246;2022-10-22T00:05:24;13.60;99.90
55648;DHT22;45266;48.756;9.246;2022-10-22T00:06:25;13.60;99.90
55648;DHT22;45266;48.756;9.246;2022-10-22T00:07:27;13.60;99.90
55648;DHT22;45266;48.756;9.246;2022-10-22T00:08:30;13.60;99.90
55648;DHT22;45266;48.756;9.246;2022-10-22T00:09:31;13.50;99.90
55648;DHT22;45266;48.756;9.246;2022-10-22T00:10:33;13.50;99.90
55648;DHT22;45266;48.756;9.246;2022-10-22T00:11:37;13.50;99.90
55648;DHT22;45266;48.756;9.246;2022-10-22T00:12:39;13.50;99.90
55648;DHT22;45266;48.756;9.246;2022-10-22T00:13:41;13.40;99.90
55648;DHT22;45266;48.756;9.246;2022-10-22T00:14:43;13.50;99.90
55648;DHT22;45266;48.756;9.246;2022-10-22T00:15:45;13.50;99.90
55648;DHT22;45266;48.756;9.246;2022-10-22T00:16:46;13.50;99.90
55648;DHT22;45266;48.756;9.246;2022-10-22T00:17:48;13.50;99.90
55648;DHT22;45266;48.756;9.246;2022-10-22T00:18:50;13.50;99.90
55648;DHT22;45266;48.756;9.246;2022-10-22T00:19:52;13.40;99.90
55648;DHT22;45266;48.756;9.246;2022-10-22T00:20:53;13.40;99.90
55648;DHT22;45266;48.756;9.246;2022-10-22T00:21:55;13.40;99.90
55648;DHT22;45266;48.756;9.246;2022-10-22T00:22:58;13.40;99.90
55648;DHT22;45266;48.756;9.246;2022-10-22T00:24:00;13.40;99.90
55648;DHT22;45266;48.756;9.246;2022-10-22T00:25:02;13.40;99.90
55648;DHT22;45266;48.756;9.246;2022-10-22T00:26:04;13.40;99.90
55648;DHT22;45266;48.756;9.246;2022-10-22T00:27:08;13.40;99.90
55648;DHT22;45266;48.756;9.246;2022-10-22T00:28:10;13.40;99.90
55648;DHT22;45266;48.756;9.246;2022-10-22T00:29:12;13.40;99.90
55648;DHT22;45266;48.756;9.246;2022-10-22T00:30:14;13.40;99.90
55648;DHT22;45266;48.756;9.246;2022-10-22T00:31:15;13.40;99.90
55648;DHT22;45266;48.756;9.246;2022-10-22T00:32:19;13.50;99.90
55648;DHT22;45266;48.756;9.246;2022-10-22T00:33:21;13.40;99.90
55648;DHT22;45266;48.756;9.246;2022-10-22T00:34:23;13.30;99.90
55648;DHT22;45266;48.756;9.246;2022-10-22T00:35:25;13.30;99.90
55648;DHT22;45266;48.756;9.246;2022-10-22T00:36:27;13.40;99.90
55648;DHT22;45266;48.756;9.246;2022-10-22T00:37:29;13.40;99.90
55648;DHT22;45266;48.756;9.246;2022-10-22T00:38:32;13.30;99.90
55648;DHT22;45266;48.756;9.246;2022-10-22T00:39:33;13.30;99.90
55648;DHT22;45266;48.756;9.246;2022-10-22T00:40:35;13.30;99.90
55648;DHT22;45266;48.756;9.246;2022-10-22T00:41:38;13.30;99.90
55648;DHT22;45266;48.756;9.246;2022-10-22T00:42:40;13.30;99.90
55648;DHT22;45266;48.756;9.246;2022-10-22T00:44:00;13.20;99.90
55648;DHT22;45266;48.756;9.246;2022-10-22T00:46:10;13.30;99.90
55648;DHT22;45266;48.756;9.246;2022-10-22T00:47:12;13.20;99.90
55648;DHT22;45266;48.756;9.246;2022-10-22T00:48:26;13.30;99.90
55648;DHT22;45266;48.756;9.246;2022-10-22T00:49:28;13.20;99.90
55648;DHT22;45266;48.756;9.246;2022-10-22T00:50:41;13.20;99.90
55648;DHT22;45266;48.756;9.246;2022-10-22T00:51:44;13.20;99.90
55648;DHT22;45266;48.756;9.246;2022-10-22T00:52:46;13.20;99.90
55648;DHT22;45266;48.756;9.246;2022-10-22T00:53:52;13.10;99.90
55648;DHT22;45266;48.756;9.246;2022-10-22T00:54:56;13.20;99.90
55648;DHT22;45266;48.756;9.246;2022-10-22T00:55:58;13.20;99.90
55648;DHT22;45266;48.756;9.246;2022-10-22T00:57:00;13.20;99.90
55648;DHT22;45266;48.756;9.246;2022-10-22T00:58:02;13.10;99.90
55648;DHT22;45266;48.756;9.246;2022-10-22T00:59:05;13.10;99.90
55648;DHT22;45266;48.756;9.246;2022-10-22T01:00:07;13.20;99.90
55648;DHT22;45266;48.756;9.246;2022-10-22T01:01:13;13.10;99.90
55648;DHT22;45266;48.756;9.246;2022-10-22T01:02:17;13.10;99.90
55648;DHT22;45266;48.756;9.246;2022-10-22T01:03:19;13.10;99.90
55648;DHT22;45266;48.756;9.246;2022-10-22T01:04:21;13.10;99.90
55648;DHT22;45266;48.756;9.246;2022-10-22T01:05:26;13.20;99.90
55648;DHT22;45266;48.756;9.246;2022-10-22T01:06:31;13.10;99.90
55648;DHT22;45266;48.756;9.246;2022-10-22T01:07:37;13.10;99.90
55648;DHT22;45266;48.756;9.246;2022-10-22T01:13:33;13.10;99.90
55648;DHT22;45266;48.756;9.246;2022-10-22T01:21:42;13.20;99.90
55648;DHT22;45266;48.756;9.246;2022-10-22T01:26:36;13.10;99.90
55648;DHT22;45266;48.756;9.246;2022-10-22T01:29:17;13.20;99.90
55648;DHT22;45266;48.756;9.246;2022-10-22T01:30:22;13.20;99.90
55648;DHT22;45266;48.756;9.246;2022-10-22T01:31:29;13.20;99.90
55648;DHT22;45266;48.756;9.246;2022-10-22T01:32:42;13.20;99.90
55648;DHT22;45266;48.756;9.246;2022-10-22T01:33:47;13.20;99.90
55648;DHT22;45266;48.756;9.246;2022-10-22T01:35:02;13.20;99.90
55648;DHT22;45266;48.756;9.246;2022-10-22T01:36:05;13.20;99.90
55648;DHT22;45266;48.756;9.246;2022-10-22T01:37:08;13.20;99.90
55648;DHT22;45266;48.756;9.246;2022-10-22T01:38:14;13.20;99.90
55648;DHT22;45266;48.756;9.246;2022-10-22T01:39:17;13.20;99.90
55648;DHT22;45266;48.756;9.246;2022-10-22T01:40:21;13.20;99.90
55648;DHT22;45266;48.756;9.246;2022-10-22T01:41:23;13.30;99.90
55648;DHT22;45266;48.756;9.246;2022-10-22T01:42:25;13.30;99.90
55648;DHT22;45266;48.756;9.246;2022-10-22T01:43:27;13.30;99.90
55648;DHT22;45266;48.756;9.246;2022-10-22T01:44:30;13.30;99.90
55648;DHT22;45266;48.756;9.246;2022-10-22T01:45:46;13.30;99.90
55648;DHT22;45266;48.756;9.246;2022-10-22T01:46:50;13.30;99.90
55648;DHT22;45266;48.756;9.246;2022-10-22T01:49:20;13.40;99.90
55648;DHT22;45266;48.756;9.246;2022-10-22T01:52:33;13.30;99.90
55648;DHT22;45266;48.756;9.246;2022-10-22T01:55:12;13.30;99.90
55648;DHT22;45266;48.756;9.246;2022-10-22T01:58:21;13.30;99.90
55648;DHT22;45266;48.756;9.246;2022-10-22T02:00:39;13.30;99.90
55648;DHT22;45266;48.756;9.246;2022-10-22T02:03:14;13.20;99.90
55648;DHT22;45266;48.756;9.246;2022-10-22T02:04:40;13.10;99.90
55648;DHT22;45266;48.756;9.246;2022-10-22T02:05:53;13.10;99.90
55648;DHT22;45266;48.756;9.246;2022-10-22T02:07:00;13.10;99.90
55648;DHT22;45266;48.756;9.246;2022-10-22T02:08:08;13.10;99.90
55648;DHT22;45266;48.756;9.246;2022-10-22T02:09:13;13.10;99.90
55648;DHT22;45266;48.756;9.246;2022-10-22T02:10:17;13.10;99.90
55648;DHT22;45266;48.756;9.246;2022-10-22T02:11:19;13.10;99.90
55648;DHT22;45266;48.756;9.246;2022-10-22T02:12:22;13.00;99.90
55648;DHT22;45266;48.756;9.246;2022-10-22T02:13:27;13.00;99.90
55648;DHT22;45266;48.756;9.246;2022-10-22T02:14:32;13.00;99.90
55648;DHT22;45266;48.756;9.246;2022-10-22T02:15:36;13.00;99.90
55648;DHT22;45266;48.756;9.246;2022-10-22T02:16:43;13.00;99.90
55648;DHT22;45266;48.756;9.246;2022-10-22T02:17:46;13.00;99.90
55648;DHT22;45266;48.756;9.246;2022-10-22T02:18:50;13.00;99.90
55648;DHT22;45266;48.756;9.246;2022-10-22T02:19:57;13.00;99.90
55648;DHT22;45266;48.756;9.246;2022-10-22T02:21:01;13.00;99.90
55648;DHT22;45266;48.756;9.246;2022-10-22T02:22:04;13.00;99.90
55648;DHT22;45266;48.756;9.246;2022-10-22T02:23:06;12.90;99.90
55648;DHT22;45266;48.756;9.246;2022-10-22T02:24:09;12.90;99.90
55648;DHT22;45266;48.756;9.246;2022-10-22T02:25:11;12.90;99.90
55648;DHT22;45266;48.756;9.246;2022-10-22T02:26:21;12.90;99.90
55648;DHT22;45266;48.756;9.246;2022-10-22T02:27:31;12.90;99.90
55648;DHT22;45266;48.756;9.246;2022-10-22T02:29:18;12.90;99.90
55648;DHT22;45266;48.756;9.246;2022-10-22T02:30:12;12.90;99.90
55648;DHT22;45266;48.756;9.246;2022-10-22T02:31:19;12.90;99.90
55648;DHT22;45266;48.756;9.246;2022-10-22T02:32:24;12.90;99.90
55648;DHT22;45266;48.756;9.246;2022-10-22T02:33:29;12.90;99.90
55648;DHT22;45266;48.756;9.246;2022-10-22T02:34:33;12.80;99.90
55648;DHT22;45266;48.756;9.246;2022-10-22T02:35:36;12.90;99.90
55648;DHT22;45266;48.756;9.246;2022-10-22T02:36:42;12.80;99.90
55648;DHT22;45266;48.756;9.246;2022-10-22T02:37:51;12.80;99.90
55648;DHT22;45266;48.756;9.246;2022-10-22T02:38:54;12.80;99.90
55648;DHT22;45266;48.756;9.246;2022-10-22T02:39:56;12.80;99.90
55648;DHT22;45266;48.756;9.246;2022-10-22T02:40:58;12.80;99.90
55648;DHT22;45266;48.756;9.246;2022-10-22T02:42:01;12.80;99.90
55648;DHT22;45266;48.756;9.246;2022-10-22T02:43:04;12.80;99.90
55648;DHT22;45266;48.756;9.246;2022-10-22T02:44:08;12.80;99.90
55648;DHT22;45266;48.756;9.246;2022-10-22T02:45:10;12.70;99.90
55648;DHT22;45266;48.756;9.246;2022-10-22T02:46:12;12.80;99.90
55648;DHT22;45266;48.756;9.246;2022-10-22T02:47:14;12.80;99.90
55648;DHT22;45266;48.756;9.246;2022-10-22T02:48:16;12.80;99.90
55648;DHT22;45266;48.756;9.246;2022-10-22T02:49:18;12.80;99.90
55648;DHT22;45266;48.756;9.246;2022-10-22T02:50:19;12.80;99.90
55648;DHT22;45266;48.756;9.246;2022-10-22T02:51:21;12.80;99.90
55648;DHT22;45266;48.756;9.246;2022-10-22T02:52:23;12.80;99.90
55648;DHT22;45266;48.756;9.246;2022-10-22T02:53:25;12.80;99.90
55648;DHT22;45266;48.756;9.246;2022-10-22T02:54:26;12.80;99.90
55648;DHT22;45266;48.756;9.246;2022-10-22T02:55:28;12.80;99.90
55648;DHT22;45266;48.756;9.246;2022-10-22T02:56:30;12.80;99.90
55648;DHT22;45266;48.756;9.246;2022-10-22T02:57:32;12.80;99.90
55648;DHT22;45266;48.756;9.246;2022-10-22T02:58:34;12.80;99.90
55648;DHT22;45266;48.756;9.246;2022-10-22T02:59:35;12.80;99.90
55648;DHT22;45266;48.756;9.246;2022-10-22T03:00:38;12.80;99.90
55648;DHT22;45266;48.756;9.246;2022-10-22T03:01:40;12.80;99.90
55648;DHT22;45266;48.756;9.246;2022-10-22T03:02:42;12.80;99.90
55648;DHT22;45266;48.756;9.246;2022-10-22T03:03:43;12.80;99.90
55648;DHT22;45266;48.756;9.246;2022-10-22T03:04:45;12.80;99.90
55648;DHT22;45266;48.756;9.246;2022-10-22T03:05:48;12.80;99.90
55648;DHT22;45266;48.756;9.246;2022-10-22T03:06:50;12.80;99.90
55648;DHT22;45266;48.756;9.246;2022-10-22T03:07:52;12.80;99.90
55648;DHT22;45266;48.756;9.246;2022-10-22T03:08:54;12.90;99.90
55648;DHT22;45266;48.756;9.246;2022-10-22T03:09:55;12.80;99.90
55648;DHT22;45266;48.756;9.246;2022-10-22T03:10:57;12.80;99.90
55648;DHT22;45266;48.756;9.246;2022-10-22T03:11:59;12.80;99.90
55648;DHT22;45266;48.756;9.246;2022-10-22T03:13:01;12.80;99.90
55648;DHT22;45266;48.756;9.246;2022-10-22T03:14:02;12.80;99.90
55648;DHT22;45266;48.756;9.246;2022-10-22T03:15:04;12.80;99.90
55648;DHT22;45266;48.756;9.246;2022-10-22T03:16:06;12.80;99.90
55648;DHT22;45266;48.756;9.246;2022-10-22T03:17:09;12.80;99.90
55648;DHT22;45266;48.756;9.246;2022-10-22T03:18:10;12.80;99.90
55648;DHT22;45266;48.756;9.246;2022-10-22T03:19:12;12.80;99.90
55648;DHT22;45266;48.756;9.246;2022-10-22T03:20:14;12.90;99.90
55648;DHT22;45266;48.756;9.246;2022-10-22T03:21:39;12.90;99.90
55648;DHT22;45266;48.756;9.246;2022-10-22T03:22:42;12.90;99.90
55648;DHT22;45266;48.756;9.246;2022-10-22T03:23:44;12.80;99.90
55648;DHT22;45266;48.756;9.246;2022-10-22T03:24:49;12.90;99.90
55648;DHT22;45266;48.756;9.246;2022-10-22T03:25:51;12.90;99.90
55648;DHT22;45266;48.756;9.246;2022-10-22T03:26:53;12.90;99.90
55648;DHT22;45266;48.756;9.246;2022-10-22T03:27:56;12.90;99.90
55648;DHT22;45266;48.756;9.246;2022-10-22T03:29:02;12.90;99.90
55648;DHT22;45266;48.756;9.246;2022-10-22T03:30:04;12.90;99.90
55648;DHT22;45266;48.756;9.246;2022-10-22T03:31:06;12.90;99.90
55648;DHT22;45266;48.756;9.246;2022-10-22T03:32:08;12.90;99.90
55648;DHT22;45266;48.756;9.246;2022-10-22T03:33:10;12.90;99.90
55648;DHT22;45266;48.756;9.246;2022-10-22T03:34:12;12.90;99.90
55648;DHT22;45266;48.756;9.246;2022-10-22T03:35:14;13.00;99.90
55648;DHT22;45266;48.756;9.246;2022-10-22T03:36:15;12.90;99.90
55648;DHT22;45266;48.756;9.246;2022-10-22T03:37:17;12.90;99.90
55648;DHT22;45266;48.756;9.246;2022-10-22T03:38:19;13.00;99.90
55648;DHT22;45266;48.756;9.246;2022-10-22T03:39:22;12.90;99.90
55648;DHT22;45266;48.756;9.246;2022-10-22T03:40:24;12.90;99.90
55648;DHT22;45266;48.756;9.246;2022-10-22T03:41:26;12.90;99.90
55648;DHT22;45266;48.756;9.246;2022-10-22T03:42:28;12.90;99.90
55648;DHT22;45266;48.756;9.246;2022-10-22T03:43:30;13.00;99.90
55648;DHT22;45266;48.756;9.246;2022-10-22T03:44:32;12.90;99.90
55648;DHT22;45266;48.756;9.246;2022-10-22T03:45:34;12.90;99.90
55648;DHT22;45266;48.756;9.246;2022-10-22T03:46:35;12.90;99.90
55648;DHT22;45266;48.756;9.246;2022-10-22T03:47:37;12.90;99.90
55648;DHT22;45266;48.756;9.246;2022-10-22T03:48:39;12.90;99.90
55648;DHT22;45266;48.756;9.246;2022-10-22T03:49:41;12.90;99.90
55648;DHT22;45266;48.756;9.246;2022-10-22T03:50:43;12.90;99.90
55648;DHT22;45266;48.756;9.246;2022-10-22T03:51:45;12.90;99.90
55648;DHT22;45266;48.756;9.246;2022-10-22T03:52:46;12.90;99.90
55648;DHT22;45266;48.756;9.246;2022-10-22T03:53:48;12.90;99.90
55648;DHT22;45266;48.756;9.246;2022-10-22T03:54:50;12.90;99.90
55648;DHT22;45266;48.756;9.246;2022-10-22T03:55:51;12.90;99.90
55648;DHT22;45266;48.756;9.246;2022-10-22T03:56:53;12.90;99.90
55648;DHT22;45266;48.756;9.246;2022-10-22T03:57:55;12.90;99.90
55648;DHT22;45266;48.756;9.246;2022-10-22T03:58:58;12.90;99.90
55648;DHT22;45266;48.756;9.246;2022-10-22T04:00:00;12.90;99.90
55648;DHT22;45266;48.756;9.246;2022-10-22T04:01:09;12.90;99.90
55648;DHT22;45266;48.756;9.246;2022-10-22T04:02:12;12.90;99.90
55648;DHT22;45266;48.756;9.246;2022-10-22T04:03:14;12.90;99.90
55648;DHT22;45266;48.756;9.246;2022-10-22T04:04:16;12.90;99.90
55648;DHT22;45266;48.756;9.246;2022-10-22T04:05:17;12.90;99.90
55648;DHT22;45266;48.756;9.246;2022-10-22T04:06:19;12.80;99.90
55648;DHT22;45266;48.756;9.246;2022-10-22T04:07:21;12.80;99.90
55648;DHT22;45266;48.756;9.246;2022-10-22T04:08:23;12.80;99.90
55648;DHT22;45266;48.756;9.246;2022-10-22T04:09:24;12.80;99.90
55648;DHT22;45266;48.756;9.246;2022-10-22T04:10:26;12.80;99.90
55648;DHT22;45266;48.756;9.246;2022-10-22T04:11:28;12.70;99.90
55648;DHT22;45266;48.756;9.246;2022-10-22T04:12:30;12.80;99.90
55648;DHT22;45266;48.756;9.246;2022-10-22T04:13:32;12.70;99.90
55648;DHT22;45266;48.756;9.246;2022-10-22T04:14:34;12.70;99.90
55648;DHT22;45266;48.756;9.246;2022-10-22T04:15:36;12.80;99.90
55648;DHT22;45266;48.756;9.246;2022-10-22T04:16:39;12.70;99.90
55648;DHT22;45266;48.756;9.246;2022-10-22T04:17:41;12.80;99.90
55648;DHT22;45266;48.756;9.246;2022-10-22T04:18:45;12.80;99.90
55648;DHT22;45266;48.756;9.246;2022-10-22T04:19:47;12.70;99.90
55648;DHT22;45266;48.756;9.246;2022-10-22T04:20:51;12.70;99.90
55648;DHT22;45266;48.756;9.246;2022-10-22T04:21:53;12.70;99.90
55648;DHT22;45266;48.756;9.246;2022-10-22T04:22:55;12.80;99.90
55648;DHT22;45266;48.756;9.246;2022-10-22T04:23:57;12.70;99.90
55648;DHT22;45266;48.756;9.246;2022-10-22T04:24:59;12.70;99.90
55648;DHT22;45266;48.756;9.246;2022-10-22T04:26:05;12.60;99.90
55648;DHT22;45266;48.756;9.246;2022-10-22T04:27:07;12.70;99.90
55648;DHT22;45266;48.756;9.246;2022-10-22T04:28:09;12.70;99.90
55648;DHT22;45266;48.756;9.246;2022-10-22T04:29:10;12.60;99.90
55648;DHT22;45266;48.756;9.246;2022-10-22T04:30:17;12.60;99.90
55648;DHT22;45266;48.756;9.246;2022-10-22T04:31:21;12.60;99.90
55648;DHT22;45266;48.756;9.246;2022-10-22T04:32:24;12.60;99.90
55648;DHT22;45266;48.756;9.246;2022-10-22T04:33:26;12.50;99.90
55648;DHT22;45266;48.756;9.246;2022-10-22T04:34:28;12.50;99.90
55648;DHT22;45266;48.756;9.246;2022-10-22T04:35:30;12.50;99.90
55648;DHT22;45266;48.756;9.246;2022-10-22T04:36:32;12.50;99.90
55648;DHT22;45266;48.756;9.246;2022-10-22T04:37:34;12.50;99.90
55648;DHT22;45266;48.756;9.246;2022-10-22T04:38:37;12.50;99.90
55648;DHT22;45266;48.756;9.246;2022-10-22T04:39:38;12.50;99.90
55648;DHT22;45266;48.756;9.246;2022-10-22T04:40:40;12.50;99.90
55648;DHT22;45266;48.756;9.246;2022-10-22T04:41:42;12.40;99.90
55648;DHT22;45266;48.756;9.246;2022-10-22T04:42:44;12.40;99.90
55648;DHT22;45266;48.756;9.246;2022-10-22T04:43:46;12.40;99.90
55648;DHT22;45266;48.756;9.246;2022-10-22T04:44:48;12.40;99.90
55648;DHT22;45266;48.756;9.246;2022-10-22T04:45:49;12.40;99.90
55648;DHT22;45266;48.756;9.246;2022-10-22T04:46:51;12.40;99.90
55648;DHT22;45266;48.756;9.246;2022-10-22T04:47:53;12.40;99.90
55648;DHT22;45266;48.756;9.246;2022-10-22T04:48:54;12.30;99.90
55648;DHT22;45266;48.756;9.246;2022-10-22T04:49:56;12.30;99.90
55648;DHT22;45266;48.756;9.246;2022-10-22T04:50:58;12.30;99.90
55648;DHT22;45266;48.756;9.246;2022-10-22T04:52:01;12.30;99.90
55648;DHT22;45266;48.756;9.246;2022-10-22T04:53:02;12.30;99.90
55648;DHT22;45266;48.756;9.246;2022-10-22T04:54:04;12.30;99.90
55648;DHT22;45266;48.756;9.246;2022-10-22T04:55:06;12.20;99.90
55648;DHT22;45266;48.756;9.246;2022-10-22T04:56:11;12.20;99.90
55648;DHT22;45266;48.756;9.246;2022-10-22T04:57:13;12.20;99.90
55648;DHT22;45266;48.756;9.246;2022-10-22T04:58:15;12.20;99.90
55648;DHT22;45266;48.756;9.246;2022-10-22T04:59:16;12.20;99.90
55648;DHT22;45266;48.756;9.246;2022-10-22T05:00:18;12.20;99.90
55648;DHT22;45266;48.756;9.246;2022-10-22T05:02:26;12.20;99.90
55648;DHT22;45266;48.756;9.246;2022-10-22T05:03:28;12.20;99.90
55648;DHT22;45266;48.756;9.246;2022-10-22T05:04:30;12.20;99.90
55648;DHT22;45266;48.756;9.246;2022-10-22T05:05:31;12.10;99.90
55648;DHT22;45266;48.756;9.246;2022-10-22T05:06:35;12.10;99.90
55648;DHT22;45266;48.756;9.246;2022-10-22T05:07:37;12.10;99.90
55648;DHT22;45266;48.756;9.246;2022-10-22T05:08:39;12.10;99.90
55648;DHT22;45266;48.756;9.246;2022-10-22T05:09:41;12.10;99.90
55648;DHT22;45266;48.756;9.246;2022-10-22T05:10:43;12.10;99.90
55648;DHT22;45266;48.756;9.246;2022-10-22T05:11:47;12.10;99.90
55648;DHT22;45266;48.756;9.246;2022-10-22T05:12:49;12.10;99.90
55648;DHT22;45266;48.756;9.246;2022-10-22T05:13:52;12.10;99.90
55648;DHT22;45266;48.756;9.246;2022-10-22T05:14:54;12.20;99.90
55648;DHT22;45266;48.756;9.246;2022-10-22T05:16:00;12.10;99.90
55648;DHT22;45266;48.756;9.246;2022-10-22T05:17:02;12.10;99.90
55648;DHT22;45266;48.756;9.246;2022-10-22T05:18:04;12.10;99.90
55648;DHT22;45266;48.756;9.246;2022-10-22T05:19:06;12.10;99.90
55648;DHT22;45266;48.756;9.246;2022-10-22T05:20:09;12.00;99.90
55648;DHT22;45266;48.756;9.246;2022-10-22T05:21:16;12.10;99.90
55648;DHT22;45266;48.756;9.246;2022-10-22T05:22:18;12.10;99.90
55648;DHT22;45266;48.756;9.246;2022-10-22T05:23:20;12.10;99.90
55648;DHT22;45266;48.756;9.246;2022-10-22T05:24:22;12.10;99.90
55648;DHT22;45266;48.756;9.246;2022-10-22T05:25:24;12.10;99.90
55648;DHT22;45266;48.756;9.246;2022-10-22T05:26:27;12.10;99.90
55648;DHT22;45266;48.756;9.246;2022-10-22T05:27:29;12.10;99.90
55648;DHT22;45266;48.756;9.246;2022-10-22T05:28:32;12.10;99.90
55648;DHT22;45266;48.756;9.246;2022-10-22T05:29:34;12.10;99.90
55648;DHT22;45266;48.756;9.246;2022-10-22T05:30:35;12.10;99.90
55648;DHT22;45266;48.756;9.246;2022-10-22T05:31:37;12.10;99.90
55648;DHT22;45266;48.756;9.246;2022-10-22T05:32:39;12.10;99.90
55648;DHT22;45266;48.756;9.246;2022-10-22T05:33:41;12.10;99.90
55648;DHT22;45266;48.756;9.246;2022-10-22T05:34:43;12.00;99.90
55648;DHT22;45266;48.756;9.246;2022-10-22T05:35:45;12.00;99.90
55648;DHT22;45266;48.756;9.246;2022-10-22T05:36:47;12.10;99.90
55648;DHT22;45266;48.756;9.246;2022-10-22T05:37:49;12.10;99.90
55648;DHT22;45266;48.756;9.246;2022-10-22T05:38:50;12.10;99.90
55648;DHT22;45266;48.756;9.246;2022-10-22T05:39:52;12.10;99.90
55648;DHT22;45266;48.756;9.246;2022-10-22T05:41:18;12.10;99.90
55648;DHT22;45266;48.756;9.246;2022-10-22T05:42:20;12.10;99.90
55648;DHT22;45266;48.756;9.246;2022-10-22T05:43:21;12.10;99.90
55648;DHT22;45266;48.756;9.246;2022-10-22T05:44:23;12.10;99.90
55648;DHT22;45266;48.756;9.246;2022-10-22T05:45:25;12.10;99.90
55648;DHT22;45266;48.756;9.246;2022-10-22T05:46:28;12.10;99.90
55648;DHT22;45266;48.756;9.246;2022-10-22T05:47:30;12.10;99.90
55648;DHT22;45266;48.756;9.246;2022-10-22T05:48:32;12.10;99.90
55648;DHT22;45266;48.756;9.246;2022-10-22T05:49:34;12.10;99.90
55648;DHT22;45266;48.756;9.246;2022-10-22T05:50:37;12.10;99.90
55648;DHT22;45266;48.756;9.246;2022-10-22T05:51:39;12.10;99.90
55648;DHT22;45266;48.756;9.246;2022-10-22T05:52:40;12.10;99.90
55648;DHT22;45266;48.756;9.246;2022-10-22T05:53:44;12.10;99.90
55648;DHT22;45266;48.756;9.246;2022-10-22T05:54:46;12.10;99.90
55648;DHT22;45266;48.756;9.246;2022-10-22T05:55:47;12.10;99.90
55648;DHT22;45266;48.756;9.246;2022-10-22T05:56:49;12.20;99.90
55648;DHT22;45266;48.756;9.246;2022-10-22T05:57:51;12.20;99.90
55648;DHT22;45266;48.756;9.246;2022-10-22T05:58:52;12.20;99.90
55648;DHT22;45266;48.756;9.246;2022-10-22T05:59:54;12.20;99.90
55648;DHT22;45266;48.756;9.246;2022-10-22T06:01:12;12.20;99.90
55648;DHT22;45266;48.756;9.246;2022-10-22T06:02:13;12.20;99.90
55648;DHT22;45266;48.756;9.246;2022-10-22T06:03:15;12.20;99.90
55648;DHT22;45266;48.756;9.246;2022-10-22T06:04:17;12.20;99.90
55648;DHT22;45266;48.756;9.246;2022-10-22T06:05:19;12.20;99.90
55648;DHT22;45266;48.756;9.246;2022-10-22T06:07:31;12.20;99.90
55648;DHT22;45266;48.756;9.246;2022-10-22T06:08:33;12.20;99.90
55648;DHT22;45266;48.756;9.246;2022-10-22T06:09:35;12.20;99.90
55648;DHT22;45266;48.756;9.246;2022-10-22T06:10:42;12.20;99.90
55648;DHT22;45266;48.756;9.246;2022-10-22T06:11:45;12.20;99.90
55648;DHT22;45266;48.756;9.246;2022-10-22T06:12:48;12.20;99.90
55648;DHT22;45266;48.756;9.246;2022-10-22T06:13:50;12.20;99.90
55648;DHT22;45266;48.756;9.246;2022-10-22T06:14:52;12.20;99.90
55648;DHT22;45266;48.756;9.246;2022-10-22T06:15:54;12.20;99.90
55648;DHT22;45266;48.756;9.246;2022-10-22T06:16:58;12.20;99.90
55648;DHT22;45266;48.756;9.246;2022-10-22T06:18:00;12.20;99.90
55648;DHT22;45266;48.756;9.246;2022-10-22T06:19:02;12.30;99.90
55648;DHT22;45266;48.756;9.246;2022-10-22T06:20:04;12.30;99.90
55648;DHT22;45266;48.756;9.246;2022-10-22T06:21:14;12.30;99.90
55648;DHT22;45266;48.756;9.246;2022-10-22T06:22:15;12.30;99.90
55648;DHT22;45266;48.756;9.246;2022-10-22T06:23:17;12.30;99.90
55648;DHT22;45266;48.756;9.246;2022-10-22T06:24:19;12.30;99.90
55648;DHT22;45266;48.756;9.246;2022-10-22T06:25:20;12.30;99.90
55648;DHT22;45266;48.756;9.246;2022-10-22T06:26:22;12.30;99.90
55648;DHT22;45266;48.756;9.246;2022-10-22T06:27:24;12.20;99.90
55648;DHT22;45266;48.756;9.246;2022-10-22T06:28:27;12.20;99.90
55648;DHT22;45266;48.756;9.246;2022-10-22T06:29:28;12.30;99.90
55648;DHT22;45266;48.756;9.246;2022-10-22T06:30:30;12.30;99.90
55648;DHT22;45266;48.756;9.246;2022-10-22T06:31:32;12.30;99.90
55648;DHT22;45266;48.756;9.246;2022-10-22T06:32:37;12.30;99.90
55648;DHT22;45266;48.756;9.246;2022-10-22T06:33:40;12.30;99.90
55648;DHT22;45266;48.756;9.246;2022-10-22T06:34:44;12.30;99.90
55648;DHT22;45266;48.756;9.246;2022-10-22T06:35:46;12.30;99.90
55648;DHT22;45266;48.756;9.246;2022-10-22T06:36:49;12.40;99.90
55648;DHT22;45266;48.756;9.246;2022-10-22T06:37:52;12.30;99.90
55648;DHT22;45266;48.756;9.246;2022-10-22T06:38:54;12.40;99.90
55648;DHT22;45266;48.756;9.246;2022-10-22T06:39:56;12.40;99.90
55648;DHT22;45266;48.756;9.246;2022-10-22T06:41:03;12.40;99.90
55648;DHT22;45266;48.756;9.246;2022-10-22T06:42:05;12.40;99.90
55648;DHT22;45266;48.756;9.246;2022-10-22T06:43:06;12.40;99.90
55648;DHT22;45266;48.756;9.246;2022-10-22T06:44:13;12.40;99.90
55648;DHT22;45266;48.756;9.246;2022-10-22T06:45:15;12.40;99.90
55648;DHT22;45266;48.756;9.246;2022-10-22T06:46:21;12.40;99.90
55648;DHT22;45266;48.756;9.246;2022-10-22T06:47:22;12.40;99.90
55648;DHT22;45266;48.756;9.246;2022-10-22T06:48:24;12.40;99.90
55648;DHT22;45266;48.756;9.246;2022-10-22T06:49:26;12.40;99.90
55648;DHT22;45266;48.756;9.246;2022-10-22T06:50:27;12.50;99.90
55648;DHT22;45266;48.756;9.246;2022-10-22T06:51:29;12.50;99.90
55648;DHT22;45266;48.756;9.246;2022-10-22T06:52:31;12.50;99.90
55648;DHT22;45266;48.756;9.246;2022-10-22T06:53:34;12.50;99.90
55648;DHT22;45266;48.756;9.246;2022-10-22T06:54:35;12.50;99.90
55648;DHT22;45266;48.756;9.246;2022-10-22T06:55:37;12.50;99.90
55648;DHT22;45266;48.756;9.246;2022-10-22T06:56:39;12.60;99.90
55648;DHT22;45266;48.756;9.246;2022-10-22T06:57:41;12.60;99.90
55648;DHT22;45266;48.756;9.246;2022-10-22T06:58:46;12.60;99.90
55648;DHT22;45266;48.756;9.246;2022-10-22T06:59:48;12.60;99.90
55648;DHT22;45266;48.756;9.246;2022-10-22T07:01:00;12.60;99.90
55648;DHT22;45266;48.756;9.246;2022-10-22T07:02:02;12.60;99.90
55648;DHT22;45266;48.756;9.246;2022-10-22T07:03:03;12.60;99.90
55648;DHT22;45266;48.756;9.246;2022-10-22T07:04:05;12.70;99.90
55648;DHT22;45266;48.756;9.246;2022-10-22T07:05:07;12.70;99.90
55648;DHT22;45266;48.756;9.246;2022-10-22T07:06:12;12.70;99.90
55648;DHT22;45266;48.756;9.246;2022-10-22T07:07:14;12.70;99.90
55648;DHT22;45266;48.756;9.246;2022-10-22T07:08:15;12.70;99.90
55648;DHT22;45266;48.756;9.246;2022-10-22T07:09:17;12.70;99.90